createdAt,value
2017-06-17T00:00:30.111Z,0
2017-06-17T00:01:30.144Z,0
2017-06-17T00:02:30.477Z,0
2017-06-17T00:03:30.189Z,0
2017-06-17T00:04:30.524Z,0
2017-06-17T00:05:30.562Z,0
2017-06-17T00:06:30.587Z,0
2017-06-17T00:07:30.619Z,0
2017-06-17T00:08:30.636Z,0
2017-06-17T00:09:30.677Z,0
2017-06-17T00:10:30.699Z,0
2017-06-17T00:11:30.105Z,0
2017-06-17T00:12:30.759Z,0
2017-06-17T00:13:30.784Z,0
2017-06-17T00:14:30.502Z,0
2017-06-17T00:15:30.854Z,0
2017-06-17T00:16:30.556Z,0
2017-06-17T00:17:30.593Z,0
2017-06-17T00:18:30.613Z,0
2017-06-17T00:19:30.956Z,0
2017-06-17T00:20:30.991Z,0
2017-06-17T00:21:30.396Z,0
2017-06-17T00:22:31.049Z,0
2017-06-17T00:23:31.069Z,0
2017-06-17T00:24:31.136Z,0
2017-06-17T00:25:31.135Z,0
2017-06-17T00:26:30.848Z,0
2017-06-17T00:27:31.193Z,0
2017-06-17T00:28:30.901Z,0
2017-06-17T00:29:31.247Z,0
2017-06-17T00:30:30.950Z,0
2017-06-17T00:31:31.309Z,0
2017-06-17T00:32:31.330Z,0
2017-06-17T00:33:31.046Z,0
2017-06-17T00:34:31.394Z,0
2017-06-17T00:35:31.100Z,0
2017-06-17T00:36:31.451Z,0
2017-06-17T00:37:31.476Z,0
2017-06-17T00:38:30.885Z,0
2017-06-17T00:39:31.221Z,0
2017-06-17T00:40:31.247Z,0
2017-06-17T00:41:31.587Z,0
2017-06-17T00:42:31.301Z,0
2017-06-17T00:43:31.325Z,0
2017-06-17T00:44:31.674Z,0
2017-06-17T00:45:31.694Z,0
2017-06-17T00:46:31.106Z,0
2017-06-17T00:47:31.745Z,0
2017-06-17T00:48:31.785Z,0
2017-06-17T00:49:31.814Z,0
2017-06-17T00:50:31.529Z,0
2017-06-17T00:51:31.860Z,0
2017-06-17T00:52:31.581Z,0
2017-06-17T00:53:31.610Z,0
2017-06-17T00:54:31.955Z,0
2017-06-17T00:55:31.667Z,0
2017-06-17T00:56:32.010Z,0
2017-06-17T00:57:31.724Z,0
2017-06-17T00:58:32.080Z,0
2017-06-17T00:59:32.093Z,0
2017-06-17T01:00:31.807Z,0
2017-06-17T01:01:31.844Z,0
2017-06-17T01:02:32.180Z,0
2017-06-17T01:03:32.209Z,0
2017-06-17T01:04:32.233Z,0
2017-06-17T01:05:31.950Z,0
2017-06-17T01:06:32.296Z,0
2017-06-17T01:07:31.704Z,0
2017-06-17T01:08:32.036Z,0
2017-06-17T01:09:32.067Z,0
2017-06-17T01:10:32.410Z,0
2017-06-17T01:11:32.439Z,0
2017-06-17T01:12:32.157Z,0
2017-06-17T01:13:32.177Z,0
2017-06-17T01:14:32.523Z,0
2017-06-17T01:15:32.555Z,0
2017-06-17T01:16:32.263Z,0
2017-06-17T01:17:31.981Z,0
2017-06-17T01:18:32.627Z,0
2017-06-17T01:19:32.347Z,0
2017-06-17T01:20:32.691Z,0
2017-06-17T01:21:32.406Z,0
2017-06-17T01:22:32.432Z,0
2017-06-17T01:23:32.775Z,0
2017-06-17T01:24:32.801Z,0
2017-06-17T01:25:32.542Z,0
2017-06-17T01:26:32.540Z,0
2017-06-17T01:27:32.893Z,0
2017-06-17T01:28:32.917Z,0
2017-06-17T01:29:32.318Z,0
2017-06-17T01:30:32.342Z,0
2017-06-17T01:31:32.688Z,0
2017-06-17T01:32:32.720Z,0
2017-06-17T01:33:33.065Z,0
2017-06-17T01:34:33.093Z,0
2017-06-17T01:35:32.805Z,0
2017-06-17T01:36:32.522Z,0
2017-06-17T01:37:32.860Z,0
2017-06-17T01:38:32.896Z,0
2017-06-17T01:39:33.225Z,0
2017-06-17T01:40:33.250Z,0
2017-06-17T01:41:32.664Z,0
2017-06-17T01:42:33.315Z,0
2017-06-17T01:43:33.028Z,0
2017-06-17T01:44:33.371Z,0
2017-06-17T01:45:33.083Z,0
2017-06-17T01:46:33.119Z,0
2017-06-17T01:47:33.150Z,0
2017-06-17T01:48:33.489Z,0
2017-06-17T01:49:33.518Z,0
2017-06-17T01:50:33.538Z,0
2017-06-17T01:51:33.262Z,0
2017-06-17T01:52:33.285Z,0
2017-06-17T01:53:33.630Z,0
2017-06-17T01:54:33.658Z,0
2017-06-17T01:55:33.681Z,0
2017-06-17T01:56:33.087Z,0
2017-06-17T01:57:33.744Z,0
2017-06-17T01:58:33.457Z,0
2017-06-17T01:59:33.489Z,0
2017-06-17T02:00:34.075Z,0
2017-06-17T02:01:33.552Z,0
2017-06-17T02:02:33.572Z,0
2017-06-17T02:03:32.972Z,0
2017-06-17T02:04:33.937Z,0
2017-06-17T02:05:33.654Z,0
2017-06-17T02:06:33.688Z,0
2017-06-17T02:07:33.701Z,0
2017-06-17T02:08:33.757Z,0
2017-06-17T02:09:33.773Z,0
2017-06-17T02:10:34.363Z,0
2017-06-17T02:11:33.818Z,0
2017-06-17T02:12:34.164Z,0
2017-06-17T02:13:33.877Z,0
2017-06-17T02:14:33.906Z,0
2017-06-17T02:15:34.191Z,0
2017-06-17T02:16:33.963Z,0
2017-06-17T02:17:33.684Z,0
2017-06-17T02:18:34.333Z,0
2017-06-17T02:19:34.363Z,0
2017-06-17T02:20:34.339Z,0
2017-06-17T02:21:33.487Z,0
2017-06-17T02:22:34.453Z,0
2017-06-17T02:23:33.849Z,0
2017-06-17T02:24:34.182Z,0
2017-06-17T02:25:34.787Z,0
2017-06-17T02:26:34.245Z,0
2017-06-17T02:27:34.273Z,0
2017-06-17T02:28:33.992Z,0
2017-06-17T02:29:34.334Z,0
2017-06-17T02:30:33.991Z,0
2017-06-17T02:31:34.394Z,0
2017-06-17T02:32:34.416Z,0
2017-06-17T02:33:34.761Z,0
2017-06-17T02:34:34.169Z,0
2017-06-17T02:35:34.768Z,0
2017-06-17T02:36:34.536Z,0
2017-06-17T02:37:34.872Z,0
2017-06-17T02:38:34.901Z,0
2017-06-17T02:39:34.922Z,0
2017-06-17T02:40:34.899Z,0
2017-06-17T02:41:34.363Z,0
2017-06-17T02:42:35.022Z,0
2017-06-17T02:43:35.036Z,0
2017-06-17T02:44:35.059Z,0
2017-06-17T02:45:34.726Z,0
2017-06-17T02:46:35.129Z,0
2017-06-17T02:47:35.155Z,0
2017-06-17T02:48:34.864Z,0
2017-06-17T02:49:35.202Z,0
2017-06-17T02:50:34.914Z,0
2017-06-17T02:51:34.955Z,0
2017-06-17T02:52:34.987Z,0
2017-06-17T02:53:35.324Z,0
2017-06-17T02:54:35.030Z,0
2017-06-17T02:55:35.314Z,0
2017-06-17T02:56:35.404Z,0
2017-06-17T02:57:35.120Z,4
2017-06-17T02:58:35.146Z,4
2017-06-17T02:59:35.494Z,4
2017-06-17T03:00:35.203Z,0
2017-06-17T03:01:35.242Z,4
2017-06-17T03:02:35.260Z,4
2017-06-17T03:03:35.286Z,4
2017-06-17T03:04:35.319Z,4
2017-06-17T03:05:35.915Z,4
2017-06-17T03:06:35.690Z,8
2017-06-17T03:07:35.403Z,4
2017-06-17T03:08:35.424Z,8
2017-06-17T03:09:35.464Z,8
2017-06-17T03:10:36.053Z,12
2017-06-17T03:11:35.839Z,8
2017-06-17T03:12:35.860Z,12
2017-06-17T03:13:35.576Z,12
2017-06-17T03:14:35.902Z,12
2017-06-17T03:15:36.196Z,20
2017-06-17T03:16:35.655Z,20
2017-06-17T03:17:35.995Z,20
2017-06-17T03:18:36.016Z,24
2017-06-17T03:19:35.745Z,24
2017-06-17T03:20:36.009Z,32
2017-06-17T03:21:36.118Z,32
2017-06-17T03:22:35.834Z,36
2017-06-17T03:23:36.167Z,40
2017-06-17T03:24:36.193Z,44
2017-06-17T03:25:36.226Z,48
2017-06-17T03:26:35.944Z,48
2017-06-17T03:27:36.281Z,52
2017-06-17T03:28:35.996Z,56
2017-06-17T03:29:36.032Z,60
2017-06-17T03:30:35.987Z,64
2017-06-17T03:31:36.080Z,68
2017-06-17T03:32:36.116Z,76
2017-06-17T03:33:36.149Z,76
2017-06-17T03:34:36.494Z,80
2017-06-17T03:35:36.744Z,88
2017-06-17T03:36:36.531Z,92
2017-06-17T03:37:36.560Z,100
2017-06-17T03:38:36.272Z,100
2017-06-17T03:39:36.615Z,108
2017-06-17T03:40:36.902Z,112
2017-06-17T03:41:36.668Z,120
2017-06-17T03:42:36.386Z,120
2017-06-17T03:43:36.101Z,128
2017-06-17T03:44:36.443Z,132
2017-06-17T03:45:36.722Z,140
2017-06-17T03:46:36.823Z,144
2017-06-17T03:47:36.836Z,152
2017-06-17T03:48:36.869Z,152
2017-06-17T03:49:36.590Z,160
2017-06-17T03:50:36.926Z,164
2017-06-17T03:51:36.642Z,168
2017-06-17T03:52:36.972Z,176
2017-06-17T03:53:36.700Z,180
2017-06-17T03:54:36.103Z,184
2017-06-17T03:55:36.999Z,192
2017-06-17T03:56:37.103Z,196
2017-06-17T03:57:36.487Z,200
2017-06-17T03:58:37.153Z,204
2017-06-17T03:59:37.175Z,212
2017-06-17T04:00:37.214Z,216
2017-06-17T04:01:37.232Z,220
2017-06-17T04:02:37.256Z,224
2017-06-17T04:03:37.293Z,232
2017-06-17T04:04:37.322Z,236
2017-06-17T04:05:37.038Z,236
2017-06-17T04:06:37.067Z,240
2017-06-17T04:07:36.788Z,244
2017-06-17T04:08:36.800Z,248
2017-06-17T04:09:37.149Z,252
2017-06-17T04:10:37.738Z,260
2017-06-17T04:11:37.211Z,264
2017-06-17T04:12:37.233Z,268
2017-06-17T04:13:37.577Z,272
2017-06-17T04:14:37.605Z,276
2017-06-17T04:15:37.564Z,280
2017-06-17T04:16:37.334Z,284
2017-06-17T04:17:37.683Z,292
2017-06-17T04:18:37.718Z,292
2017-06-17T04:19:37.109Z,296
2017-06-17T04:20:37.766Z,300
2017-06-17T04:21:37.483Z,304
2017-06-17T04:22:37.193Z,308
2017-06-17T04:23:37.540Z,316
2017-06-17T04:24:37.881Z,316
2017-06-17T04:25:38.154Z,324
2017-06-17T04:26:37.610Z,328
2017-06-17T04:27:37.336Z,328
2017-06-17T04:28:37.676Z,332
2017-06-17T04:29:37.386Z,336
2017-06-17T04:30:37.994Z,340
2017-06-17T04:31:38.075Z,340
2017-06-17T04:32:37.791Z,344
2017-06-17T04:33:37.509Z,352
2017-06-17T04:34:38.158Z,352
2017-06-17T04:35:37.570Z,356
2017-06-17T04:36:38.215Z,360
2017-06-17T04:37:38.240Z,364
2017-06-17T04:38:38.276Z,368
2017-06-17T04:39:37.994Z,372
2017-06-17T04:40:38.582Z,372
2017-06-17T04:41:38.357Z,380
2017-06-17T04:42:38.064Z,384
2017-06-17T04:43:38.413Z,384
2017-06-17T04:44:37.825Z,388
2017-06-17T04:45:37.846Z,392
2017-06-17T04:46:38.182Z,392
2017-06-17T04:47:38.532Z,396
2017-06-17T04:48:38.244Z,400
2017-06-17T04:49:38.589Z,404
2017-06-17T04:50:38.562Z,408
2017-06-17T04:51:38.642Z,412
2017-06-17T04:52:38.668Z,416
2017-06-17T04:53:38.693Z,420
2017-06-17T04:54:38.729Z,420
2017-06-17T04:55:39.004Z,424
2017-06-17T04:56:38.456Z,428
2017-06-17T04:57:38.795Z,432
2017-06-17T04:58:38.520Z,432
2017-06-17T04:59:38.553Z,436
2017-06-17T05:00:38.891Z,440
2017-06-17T05:01:38.917Z,440
2017-06-17T05:02:38.639Z,444
2017-06-17T05:03:38.354Z,448
2017-06-17T05:04:38.693Z,452
2017-06-17T05:05:38.719Z,456
2017-06-17T05:06:38.424Z,460
2017-06-17T05:07:38.459Z,460
2017-06-17T05:08:38.808Z,464
2017-06-17T05:09:39.149Z,464
2017-06-17T05:10:38.856Z,472
2017-06-17T05:11:38.886Z,472
2017-06-17T05:12:39.232Z,480
2017-06-17T05:13:38.943Z,484
2017-06-17T05:14:38.977Z,484
2017-06-17T05:15:39.313Z,492
2017-06-17T05:16:39.339Z,492
2017-06-17T05:17:38.747Z,496
2017-06-17T05:18:39.397Z,496
2017-06-17T05:19:39.425Z,500
2017-06-17T05:20:39.390Z,504
2017-06-17T05:21:39.486Z,508
2017-06-17T05:22:39.515Z,512
2017-06-17T05:23:39.276Z,512
2017-06-17T05:24:39.564Z,516
2017-06-17T05:25:39.526Z,520
2017-06-17T05:26:39.307Z,524
2017-06-17T05:27:39.658Z,528
2017-06-17T05:28:39.052Z,528
2017-06-17T05:29:39.397Z,536
2017-06-17T05:30:39.738Z,536
2017-06-17T05:31:39.762Z,540
2017-06-17T05:32:39.787Z,540
2017-06-17T05:33:39.812Z,544
2017-06-17T05:34:39.847Z,544
2017-06-17T05:35:39.896Z,544
2017-06-17T05:36:39.279Z,552
2017-06-17T05:37:39.619Z,552
2017-06-17T05:38:39.648Z,556
2017-06-17T05:39:39.672Z,560
2017-06-17T05:40:39.955Z,564
2017-06-17T05:41:40.042Z,564
2017-06-17T05:42:40.079Z,568
2017-06-17T05:43:39.816Z,568
2017-06-17T05:44:39.813Z,568
2017-06-17T05:45:40.153Z,572
2017-06-17T05:46:40.182Z,576
2017-06-17T05:47:40.215Z,580
2017-06-17T05:48:40.239Z,584
2017-06-17T05:49:40.269Z,588
2017-06-17T05:50:40.546Z,592
2017-06-17T05:51:40.331Z,596
2017-06-17T05:52:40.072Z,596
2017-06-17T05:53:40.379Z,600
2017-06-17T05:54:40.406Z,608
2017-06-17T05:55:39.813Z,612
2017-06-17T05:56:39.845Z,624
2017-06-17T05:57:40.183Z,612
2017-06-17T05:58:40.525Z,628
2017-06-17T05:59:39.926Z,624
2017-06-17T06:00:40.262Z,652
2017-06-17T06:01:40.302Z,708
2017-06-17T06:02:40.635Z,804
2017-06-17T06:03:40.045Z,868
2017-06-17T06:04:40.389Z,860
2017-06-17T06:05:40.722Z,828
2017-06-17T06:06:40.747Z,820
2017-06-17T06:07:40.462Z,876
2017-06-17T06:08:40.805Z,788
2017-06-17T06:09:40.509Z,796
2017-06-17T06:10:40.865Z,748
2017-06-17T06:11:40.894Z,716
2017-06-17T06:12:40.920Z,760
2017-06-17T06:13:40.948Z,844
2017-06-17T06:14:40.340Z,800
2017-06-17T06:15:40.998Z,784
2017-06-17T06:16:41.031Z,788
2017-06-17T06:17:41.060Z,812
2017-06-17T06:18:40.456Z,904
2017-06-17T06:19:40.809Z,996
2017-06-17T06:20:40.838Z,1052
2017-06-17T06:21:41.110Z,952
2017-06-17T06:22:41.202Z,956
2017-06-17T06:23:41.229Z,984
2017-06-17T06:24:40.945Z,1024
2017-06-17T06:25:41.290Z,1048
2017-06-17T06:26:41.310Z,1064
2017-06-17T06:27:41.027Z,1128
2017-06-17T06:28:40.741Z,1160
2017-06-17T06:29:41.073Z,1340
2017-06-17T06:30:41.427Z,1480
2017-06-17T06:31:41.450Z,1636
2017-06-17T06:32:41.482Z,1724
2017-06-17T06:33:41.200Z,1848
2017-06-17T06:34:41.221Z,2008
2017-06-17T06:35:41.566Z,2156
2017-06-17T06:36:41.842Z,2172
2017-06-17T06:37:41.307Z,2172
2017-06-17T06:38:41.353Z,2256
2017-06-17T06:39:41.361Z,2336
2017-06-17T06:40:41.397Z,2372
2017-06-17T06:41:41.690Z,2276
2017-06-17T06:42:41.758Z,2252
2017-06-17T06:43:41.531Z,2256
2017-06-17T06:44:41.824Z,2224
2017-06-17T06:45:41.854Z,2208
2017-06-17T06:46:42.118Z,2216
2017-06-17T06:47:41.899Z,2296
2017-06-17T06:48:41.943Z,2340
2017-06-17T06:49:41.651Z,2368
2017-06-17T06:50:41.992Z,2328
2017-06-17T06:51:41.944Z,2340
2017-06-17T06:52:41.739Z,2388
2017-06-17T06:53:41.763Z,2496
2017-06-17T06:54:42.112Z,2536
2017-06-17T06:55:42.141Z,2624
2017-06-17T06:56:42.406Z,2672
2017-06-17T06:57:42.199Z,2616
2017-06-17T06:58:41.907Z,2584
2017-06-17T06:59:41.937Z,2412
2017-06-17T07:01:43.320Z,2328
2017-06-17T07:02:42.626Z,2364
2017-06-17T07:03:42.362Z,2372
2017-06-17T07:04:42.392Z,2480
2017-06-17T07:05:42.417Z,2616
2017-06-17T07:06:42.458Z,2640
2017-06-17T07:07:42.467Z,2612
2017-06-17T07:08:41.872Z,2444
2017-06-17T07:09:42.220Z,2144
2017-06-17T07:10:42.250Z,2144
2017-06-17T07:11:42.845Z,2444
2017-06-17T07:12:42.294Z,2672
2017-06-17T07:13:42.338Z,2408
2017-06-17T07:14:42.352Z,2216
2017-06-17T07:15:42.705Z,2684
2017-06-17T07:16:42.111Z,2992
2017-06-17T07:17:42.135Z,3024
2017-06-17T07:18:42.171Z,3008
2017-06-17T07:19:42.500Z,3132
2017-06-17T07:20:42.226Z,3240
2017-06-17T07:21:43.134Z,3116
2017-06-17T07:22:42.595Z,3260
2017-06-17T07:23:42.936Z,3304
2017-06-17T07:24:42.963Z,3304
2017-06-17T07:25:42.669Z,3404
2017-06-17T07:26:43.019Z,3468
2017-06-17T07:27:42.734Z,3508
2017-06-17T07:28:43.075Z,3492
2017-06-17T07:29:43.108Z,3468
2017-06-17T07:30:43.133Z,3352
2017-06-17T07:31:43.165Z,3368
2017-06-17T07:32:43.198Z,3456
2017-06-17T07:33:42.912Z,3584
2017-06-17T07:34:42.942Z,3664
2017-06-17T07:35:43.282Z,3696
2017-06-17T07:36:43.558Z,3708
2017-06-17T07:37:43.339Z,3760
2017-06-17T07:38:43.367Z,3820
2017-06-17T07:39:43.084Z,3852
2017-06-17T07:40:43.113Z,3832
2017-06-17T07:41:43.451Z,3892
2017-06-17T07:42:43.175Z,3900
2017-06-17T07:43:43.508Z,3960
2017-06-17T07:44:42.914Z,3892
2017-06-17T07:45:43.573Z,3828
2017-06-17T07:46:43.226Z,3868
2017-06-17T07:47:43.302Z,3992
2017-06-17T07:48:43.339Z,4032
2017-06-17T07:49:43.675Z,4000
2017-06-17T07:50:43.745Z,3936
2017-06-17T07:51:43.725Z,3960
2017-06-17T07:52:43.789Z,4020
2017-06-17T07:53:43.783Z,4032
2017-06-17T07:54:43.508Z,4064
2017-06-17T07:55:43.845Z,4080
2017-06-17T07:56:43.885Z,4136
2017-06-17T07:57:43.298Z,4160
2017-06-17T07:58:43.627Z,4104
2017-06-17T07:59:43.967Z,4104
2017-06-17T08:00:43.685Z,4172
2017-06-17T08:01:44.003Z,4152
2017-06-17T08:02:43.717Z,4072
2017-06-17T08:03:44.049Z,4032
2017-06-17T08:04:43.766Z,4004
2017-06-17T08:05:44.114Z,4036
2017-06-17T08:06:44.131Z,4044
2017-06-17T08:07:43.554Z,3956
2017-06-17T08:08:43.892Z,3844
2017-06-17T08:09:43.923Z,3752
2017-06-17T08:10:44.267Z,3652
2017-06-17T08:11:44.563Z,3684
2017-06-17T08:12:44.347Z,3660
2017-06-17T08:13:44.368Z,3712
2017-06-17T08:14:44.388Z,3720
2017-06-17T08:15:44.116Z,3704
2017-06-17T08:16:44.710Z,3696
2017-06-17T08:17:44.491Z,3704
2017-06-17T08:18:44.520Z,3676
2017-06-17T08:19:44.232Z,3584
2017-06-17T08:20:44.258Z,3512
2017-06-17T08:21:44.607Z,3424
2017-06-17T08:22:44.627Z,3464
2017-06-17T08:23:44.347Z,3552
2017-06-17T08:24:44.695Z,3700
2017-06-17T08:25:44.421Z,4096
2017-06-17T08:26:44.747Z,4280
2017-06-17T08:27:44.778Z,4376
2017-06-17T08:28:44.792Z,4632
2017-06-17T08:29:44.835Z,4692
2017-06-17T08:30:44.889Z,4528
2017-06-17T08:31:44.825Z,4560
2017-06-17T08:32:44.602Z,4604
2017-06-17T08:33:44.643Z,4536
2017-06-17T08:34:44.976Z,4536
2017-06-17T08:35:44.697Z,4600
2017-06-17T08:36:45.037Z,4612
2017-06-17T08:37:45.061Z,4612
2017-06-17T08:38:45.098Z,4456
2017-06-17T08:39:45.135Z,4280
2017-06-17T08:40:44.534Z,4244
2017-06-17T08:41:44.562Z,4312
2017-06-17T08:42:44.583Z,4476
2017-06-17T08:43:44.922Z,4532
2017-06-17T08:44:44.959Z,4544
2017-06-17T08:45:44.985Z,4696
2017-06-17T08:46:45.578Z,4836
2017-06-17T08:47:45.359Z,4928
2017-06-17T08:48:45.383Z,4848
2017-06-17T08:49:45.412Z,4912
2017-06-17T08:50:44.808Z,4976
2017-06-17T08:51:44.846Z,5172
2017-06-17T08:52:45.494Z,5320
2017-06-17T08:53:45.535Z,5280
2017-06-17T08:54:45.248Z,5132
2017-06-17T08:55:44.963Z,5128
2017-06-17T08:56:45.608Z,5316
2017-06-17T08:57:45.647Z,5476
2017-06-17T08:58:45.675Z,5540
2017-06-17T08:59:45.703Z,5508
2017-06-17T09:00:45.728Z,5420
2017-06-17T09:01:45.761Z,5400
2017-06-17T09:02:45.478Z,5336
2017-06-17T09:03:45.831Z,5288
2017-06-17T09:04:45.847Z,5232
2017-06-17T09:05:45.568Z,5232
2017-06-17T09:06:45.584Z,5272
2017-06-17T09:07:45.563Z,5380
2017-06-17T09:08:45.959Z,5368
2017-06-17T09:09:45.676Z,5400
2017-06-17T09:10:46.034Z,5460
2017-06-17T09:11:46.053Z,5644
2017-06-17T09:12:45.454Z,5468
2017-06-17T09:13:45.799Z,5192
2017-06-17T09:14:45.835Z,4816
2017-06-17T09:15:46.168Z,4416
2017-06-17T09:16:46.198Z,4216
2017-06-17T09:17:46.477Z,4256
2017-06-17T09:18:45.938Z,4424
2017-06-17T09:19:46.286Z,4716
2017-06-17T09:20:46.313Z,4900
2017-06-17T09:21:46.026Z,4856
2017-06-17T09:22:46.310Z,4484
2017-06-17T09:23:46.395Z,4572
2017-06-17T09:24:46.110Z,5196
2017-06-17T09:25:46.148Z,5640
2017-06-17T09:26:46.177Z,5924
2017-06-17T09:27:45.922Z,5996
2017-06-17T09:28:46.553Z,5684
2017-06-17T09:29:46.293Z,5448
2017-06-17T09:30:46.608Z,4956
2017-06-17T09:31:46.630Z,4720
2017-06-17T09:32:46.913Z,4268
2017-06-17T09:33:46.382Z,4052
2017-06-17T09:34:46.720Z,4164
2017-06-17T09:35:46.747Z,4332
2017-06-17T09:36:46.464Z,4436
2017-06-17T09:37:46.806Z,4316
2017-06-17T09:38:46.835Z,4060
2017-06-17T09:39:46.864Z,3800
2017-06-17T09:40:46.901Z,3812
2017-06-17T09:41:46.919Z,4040
2017-06-17T09:42:46.662Z,4324
2017-06-17T09:43:46.349Z,4204
2017-06-17T09:44:46.703Z,4244
2017-06-17T09:45:47.044Z,4456
2017-06-17T09:46:46.438Z,4800
2017-06-17T09:47:46.790Z,5136
2017-06-17T09:48:47.127Z,5708
2017-06-17T09:49:46.854Z,6096
2017-06-17T09:50:46.880Z,6520
2017-06-17T09:51:46.901Z,6560
2017-06-17T09:52:46.931Z,5912
2017-06-17T09:53:46.973Z,5584
2017-06-17T09:54:47.299Z,5620
2017-06-17T09:55:47.029Z,5704
2017-06-17T09:56:47.365Z,5712
2017-06-17T09:57:47.069Z,5564
2017-06-17T09:58:47.413Z,5816
2017-06-17T09:59:47.451Z,5976
2017-06-17T10:00:47.169Z,5936
2017-06-17T10:01:47.200Z,5724
2017-06-17T10:02:47.477Z,5644
2017-06-17T10:03:47.263Z,5500
2017-06-17T10:04:47.595Z,5480
2017-06-17T10:05:46.683Z,5736
2017-06-17T10:06:47.338Z,5540
2017-06-17T10:07:47.629Z,5420
2017-06-17T10:08:47.708Z,5320
2017-06-17T10:09:47.423Z,5124
2017-06-17T10:10:47.764Z,4952
2017-06-17T10:11:47.801Z,4868
2017-06-17T10:12:47.770Z,4820
2017-06-17T10:13:47.866Z,4628
2017-06-17T10:14:47.572Z,4468
2017-06-17T10:15:47.607Z,4292
2017-06-17T10:16:47.956Z,4208
2017-06-17T10:17:47.679Z,4368
2017-06-17T10:18:47.694Z,4344
2017-06-17T10:19:47.724Z,4516
2017-06-17T10:20:48.061Z,4480
2017-06-17T10:21:48.101Z,4480
2017-06-17T10:22:48.062Z,4476
2017-06-17T10:23:48.152Z,4416
2017-06-17T10:24:48.174Z,4456
2017-06-17T10:25:47.901Z,4396
2017-06-17T10:26:48.240Z,4196
2017-06-17T10:27:48.207Z,3984
2017-06-17T10:28:48.292Z,3736
2017-06-17T10:29:48.319Z,3724
2017-06-17T10:30:48.355Z,3772
2017-06-17T10:31:48.392Z,3948
2017-06-17T10:32:48.104Z,4272
2017-06-17T10:33:48.441Z,4732
2017-06-17T10:34:48.151Z,4900
2017-06-17T10:35:48.508Z,5028
2017-06-17T10:36:48.532Z,5284
2017-06-17T10:37:48.244Z,5064
2017-06-17T10:38:48.588Z,5112
2017-06-17T10:39:48.300Z,4924
2017-06-17T10:40:48.648Z,4400
2017-06-17T10:41:48.381Z,4200
2017-06-17T10:42:48.397Z,4276
2017-06-17T10:43:48.738Z,4380
2017-06-17T10:44:48.439Z,4736
2017-06-17T10:45:48.796Z,4988
2017-06-17T10:46:48.824Z,4972
2017-06-17T10:47:48.844Z,5260
2017-06-17T10:48:48.565Z,5472
2017-06-17T10:49:48.911Z,5292
2017-06-17T10:50:48.943Z,5276
2017-06-17T10:51:48.973Z,5164
2017-06-17T10:52:48.932Z,4892
2017-06-17T10:53:49.046Z,4516
2017-06-17T10:54:48.427Z,4120
2017-06-17T10:55:48.775Z,4052
2017-06-17T10:56:48.796Z,4016
2017-06-17T10:57:49.406Z,4128
2017-06-17T10:58:48.855Z,4860
2017-06-17T10:59:49.206Z,5412
2017-06-17T11:00:49.240Z,5440
2017-06-17T11:01:49.256Z,5416
2017-06-17T11:02:48.998Z,5576
2017-06-17T11:03:49.318Z,4992
2017-06-17T11:04:49.351Z,4880
2017-06-17T11:05:49.378Z,4948
2017-06-17T11:06:49.407Z,4816
2017-06-17T11:07:48.738Z,4676
2017-06-17T11:08:48.834Z,4624
2017-06-17T11:09:49.494Z,4732
2017-06-17T11:10:49.200Z,5396
2017-06-17T11:11:49.547Z,5608
2017-06-17T11:12:49.836Z,5460
2017-06-17T11:13:49.302Z,5564
2017-06-17T11:14:49.647Z,5980
2017-06-17T11:15:49.667Z,6032
2017-06-17T11:16:49.692Z,6004
2017-06-17T11:17:49.104Z,5804
2017-06-17T11:18:49.761Z,5152
2017-06-17T11:19:49.786Z,4680
2017-06-17T11:20:49.507Z,4240
2017-06-17T11:21:49.216Z,3896
2017-06-17T11:22:49.873Z,3996
2017-06-17T11:23:49.590Z,4308
2017-06-17T11:24:49.619Z,4292
2017-06-17T11:25:49.968Z,4792
2017-06-17T11:26:49.997Z,5948
2017-06-17T11:27:49.708Z,7024
2017-06-17T11:28:50.285Z,7620
2017-06-17T11:29:49.774Z,7296
2017-06-17T11:30:49.794Z,6960
2017-06-17T11:31:50.140Z,6472
2017-06-17T11:32:49.847Z,6748
2017-06-17T11:33:50.132Z,7888
2017-06-17T11:34:49.596Z,9144
2017-06-17T11:35:50.253Z,10544
2017-06-17T11:36:50.281Z,10796
2017-06-17T11:37:49.684Z,10048
2017-06-17T11:38:50.341Z,9228
2017-06-17T11:39:50.404Z,9008
2017-06-17T11:40:50.406Z,9588
2017-06-17T11:41:49.835Z,7808
2017-06-17T11:42:50.464Z,7392
2017-06-17T11:43:50.734Z,8304
2017-06-17T11:44:49.579Z,10556
2017-06-17T11:45:50.327Z,8072
2017-06-17T11:46:50.579Z,6804
2017-06-17T11:47:50.319Z,6448
2017-06-17T11:48:50.882Z,6568
2017-06-17T11:49:50.666Z,7244
2017-06-17T11:50:50.387Z,7536
2017-06-17T11:51:50.416Z,7924
2017-06-17T11:52:50.756Z,8980
2017-06-17T11:53:50.706Z,10728
2017-06-17T11:54:50.817Z,13016
2017-06-17T11:55:50.846Z,13252
2017-06-17T11:56:50.568Z,12632
2017-06-17T11:57:50.592Z,12368
2017-06-17T11:58:50.930Z,22592
2017-06-17T11:59:50.650Z,29888
2017-06-17T12:00:50.986Z,19296
2017-06-17T12:01:50.396Z,16628
2017-06-17T12:02:50.741Z,16220
2017-06-17T12:03:51.085Z,22752
2017-06-17T12:04:50.803Z,12104
2017-06-17T12:05:50.830Z,12456
2017-06-17T12:06:50.537Z,10340
2017-06-17T12:07:51.205Z,8172
2017-06-17T12:08:51.171Z,6976
2017-06-17T12:09:51.263Z,6708
2017-06-17T12:10:51.283Z,6484
2017-06-17T12:11:51.321Z,6060
2017-06-17T12:12:51.036Z,6136
2017-06-17T12:13:51.316Z,6160
2017-06-17T12:14:51.416Z,5756
2017-06-17T12:15:50.813Z,5740
2017-06-17T12:16:50.835Z,5532
2017-06-17T12:17:51.494Z,5436
2017-06-17T12:18:51.457Z,3980
2017-06-17T12:19:51.563Z,3464
2017-06-17T12:20:50.958Z,3796
2017-06-17T12:21:51.620Z,3980
2017-06-17T12:22:51.030Z,4480
2017-06-17T12:23:51.377Z,4080
2017-06-17T12:24:51.395Z,3920
2017-06-17T12:25:51.111Z,4488
2017-06-17T12:26:51.764Z,4844
2017-06-17T12:27:51.491Z,4584
2017-06-17T12:28:51.518Z,4324
2017-06-17T12:29:51.542Z,3996
2017-06-17T12:30:51.566Z,3756
2017-06-17T12:31:51.600Z,3748
2017-06-17T12:32:51.944Z,3552
2017-06-17T12:33:51.604Z,3924
2017-06-17T12:34:51.688Z,4692
2017-06-17T12:35:52.035Z,7204
2017-06-17T12:36:51.751Z,10292
2017-06-17T12:37:51.812Z,31040
2017-06-17T12:38:52.129Z,8184
2017-06-17T12:39:51.843Z,5908
2017-06-17T12:40:51.870Z,4836
2017-06-17T12:41:51.903Z,5136
2017-06-17T12:42:52.240Z,4856
2017-06-17T12:43:52.817Z,5512
2017-06-17T12:44:51.982Z,6828
2017-06-17T12:45:51.729Z,9712
2017-06-17T12:46:52.044Z,6480
2017-06-17T12:47:52.076Z,6096
2017-06-17T12:48:52.668Z,5320
2017-06-17T12:49:52.457Z,5740
2017-06-17T12:50:52.479Z,8644
2017-06-17T12:51:52.196Z,10472
2017-06-17T12:52:52.536Z,13228
2017-06-17T12:53:52.816Z,11484
2017-06-17T12:54:52.583Z,13052
2017-06-17T12:55:52.316Z,27712
2017-06-17T12:56:52.659Z,12756
2017-06-17T12:57:52.370Z,10220
2017-06-17T12:58:52.965Z,16516
2017-06-17T12:59:52.435Z,16432
2017-06-17T13:00:52.791Z,64096
2017-06-17T13:01:52.483Z,62432
2017-06-17T13:02:52.519Z,34208
2017-06-17T13:03:52.869Z,35904
2017-06-17T13:04:52.579Z,19968
2017-06-17T13:05:52.927Z,9552
2017-06-17T13:06:52.952Z,23904
2017-06-17T13:07:52.359Z,13896
2017-06-17T13:08:53.265Z,8364
2017-06-17T13:09:53.046Z,7160
2017-06-17T13:10:53.081Z,6844
2017-06-17T13:11:52.799Z,14792
2017-06-17T13:12:52.828Z,70848
2017-06-17T13:13:53.163Z,63136
2017-06-17T13:14:52.885Z,22912
2017-06-17T13:15:52.911Z,10404
2017-06-17T13:16:53.267Z,16208
2017-06-17T13:17:52.976Z,67552
2017-06-17T13:18:52.707Z,61024
2017-06-17T13:19:53.039Z,60384
2017-06-17T13:20:52.455Z,35040
2017-06-17T13:21:52.794Z,30272
2017-06-17T13:22:53.449Z,22656
2017-06-17T13:23:53.161Z,10620
2017-06-17T13:24:52.909Z,11608
2017-06-17T13:25:53.215Z,7988
2017-06-17T13:26:53.256Z,8932
2017-06-17T13:27:52.663Z,8548
2017-06-17T13:28:53.626Z,6180
2017-06-17T13:29:53.342Z,5292
2017-06-17T13:30:53.378Z,6120
2017-06-17T13:31:53.723Z,8452
2017-06-17T13:32:53.748Z,9384
2017-06-17T13:33:54.037Z,24928
2017-06-17T13:34:53.189Z,25312
2017-06-17T13:35:53.530Z,56608
2017-06-17T13:36:53.560Z,30784
2017-06-17T13:37:53.901Z,37312
2017-06-17T13:38:54.181Z,20192
2017-06-17T13:39:53.657Z,69056
2017-06-17T13:40:53.683Z,55328
2017-06-17T13:41:53.723Z,77536
2017-06-17T13:42:54.057Z,27392
2017-06-17T13:43:54.025Z,45632